ZSHLZ FAPE-FAPE
Flight info
| Callsign | ZSHLZ |
|---|---|
| Flight time | 0h 24m |
| Altitude | 1000 |
| Route | FAPE DCT SEAVIEW DCT MAITLANDS DCT SEAVIEW DCT FAPE |
| Aircraft | UH1/L-VGD/C |
Departure
| Time | 2026-04-27 15:20 |
|---|---|
| Airport | Chief Dawid Stuurman International Airport (FAPE) |
Arrival
| Time | 2026-04-27 15:45 |
|---|---|
| Airport | Chief Dawid Stuurman International Airport (FAPE) |
| Time | Latitude | Longitude | Altitude | Speed | Heading |
|---|---|---|---|---|---|
| 2026-04-27 15:01 | -33.98002 | 25.62155 | 191 ft | 0 kts | 349° |
| 2026-04-27 15:07 | -33.98000 | 25.62153 | 193 ft | 3 kts | 231° |
| 2026-04-27 15:07 | -33.98032 | 25.62139 | 224 ft | 8 kts | 242° |
| 2026-04-27 15:08 | -33.98054 | 25.61952 | 335 ft | 46 kts | 265° |
| 2026-04-27 15:08 | -33.98210 | 25.61407 | 403 ft | 85 kts | 241° |
| 2026-04-27 15:08 | -33.98573 | 25.60781 | 456 ft | 94 kts | 236° |
| 2026-04-27 15:08 | -33.98944 | 25.60135 | 508 ft | 95 kts | 240° |
| 2026-04-27 15:09 | -33.99277 | 25.59442 | 527 ft | 95 kts | 244° |
| 2026-04-27 15:09 | -33.99573 | 25.58751 | 590 ft | 93 kts | 246° |
| 2026-04-27 15:09 | -33.99913 | 25.58061 | 630 ft | 93 kts | 241° |
| 2026-04-27 15:09 | -34.00217 | 25.57355 | 689 ft | 95 kts | 246° |
| 2026-04-27 15:10 | -34.00541 | 25.56649 | 655 ft | 100 kts | 242° |
| 2026-04-27 15:10 | -34.00899 | 25.55915 | 616 ft | 99 kts | 243° |
| 2026-04-27 15:10 | -34.01222 | 25.55198 | 681 ft | 96 kts | 245° |
| 2026-04-27 15:10 | -34.01511 | 25.54471 | 679 ft | 98 kts | 252° |
| 2026-04-27 15:11 | -34.01670 | 25.53675 | 649 ft | 98 kts | 258° |
| 2026-04-27 15:11 | -34.01710 | 25.52835 | 596 ft | 102 kts | 269° |
| 2026-04-27 15:11 | -34.01735 | 25.51970 | 515 ft | 103 kts | 258° |
| 2026-04-27 15:11 | -34.01854 | 25.51148 | 607 ft | 97 kts | 257° |
| 2026-04-27 15:12 | -34.01960 | 25.50351 | 723 ft | 93 kts | 259° |
| 2026-04-27 15:12 | -34.02013 | 25.49599 | 769 ft | 89 kts | 268° |
| 2026-04-27 15:12 | -34.02060 | 25.48864 | 750 ft | 92 kts | 259° |
| 2026-04-27 15:12 | -34.02249 | 25.48087 | 545 ft | 102 kts | 249° |
| 2026-04-27 15:13 | -34.02510 | 25.47295 | 449 ft | 101 kts | 251° |
| 2026-04-27 15:13 | -34.02751 | 25.46497 | 369 ft | 100 kts | 255° |
| 2026-04-27 15:13 | -34.02893 | 25.45692 | 424 ft | 96 kts | 258° |
| 2026-04-27 15:13 | -34.02982 | 25.44897 | 552 ft | 96 kts | 266° |
| 2026-04-27 15:14 | -34.02942 | 25.44086 | 591 ft | 100 kts | 272° |
| 2026-04-27 15:14 | -34.02855 | 25.43252 | 585 ft | 102 kts | 270° |
| 2026-04-27 15:14 | -34.02791 | 25.42383 | 568 ft | 101 kts | 271° |
| 2026-04-27 15:14 | -34.02705 | 25.41544 | 573 ft | 100 kts | 272° |
| 2026-04-27 15:15 | -34.02676 | 25.40732 | 585 ft | 97 kts | 270° |
| 2026-04-27 15:15 | -34.02697 | 25.39909 | 437 ft | 103 kts | 256° |
| 2026-04-27 15:15 | -34.02734 | 25.39199 | 509 ft | 98 kts | 290° |
| 2026-04-27 15:15 | -34.02358 | 25.38463 | 383 ft | 108 kts | 291° |
| 2026-04-27 15:16 | -34.02071 | 25.37640 | 310 ft | 104 kts | 292° |
| 2026-04-27 15:16 | -34.01670 | 25.36968 | 456 ft | 97 kts | 301° |
| 2026-04-27 15:16 | -34.01266 | 25.36315 | 429 ft | 100 kts | 290° |
| 2026-04-27 15:16 | -34.01113 | 25.35514 | 378 ft | 99 kts | 274° |
| 2026-04-27 15:17 | -34.01413 | 25.35083 | 536 ft | 120 kts | 144° |
| 2026-04-27 15:17 | -34.01343 | 25.35344 | 262 ft | 34 kts | 289° |
| 2026-04-27 15:17 | -34.01281 | 25.35120 | 140 ft | 16 kts | 285° |
| 2026-04-27 15:17 | -34.01246 | 25.35053 | 37 ft | 2 kts | 287° |
| 2026-04-27 15:18 | -34.01236 | 25.35043 | 88 ft | 6 kts | 289° |
| 2026-04-27 15:18 | -34.01122 | 25.34880 | 210 ft | 60 kts | 304° |
| 2026-04-27 15:19 | -34.00949 | 25.34276 | 204 ft | 92 kts | 282° |
| 2026-04-27 15:19 | -34.00581 | 25.33561 | 182 ft | 104 kts | 291° |
| 2026-04-27 15:19 | -34.00250 | 25.32793 | 225 ft | 103 kts | 289° |
| 2026-04-27 15:19 | -33.99922 | 25.32018 | 212 ft | 103 kts | 289° |
| 2026-04-27 15:20 | -33.99650 | 25.31273 | 325 ft | 94 kts | 288° |
| 2026-04-27 15:20 | -33.99550 | 25.30553 | 470 ft | 75 kts | 278° |
| 2026-04-27 15:20 | -33.99303 | 25.29983 | 728 ft | 82 kts | 279° |
| 2026-04-27 15:20 | -33.99178 | 25.29474 | 879 ft | 87 kts | 289° |
| 2026-04-27 15:21 | -33.99080 | 25.29349 | 1011 ft | 83 kts | 309° |
| 2026-04-27 15:21 | -33.98500 | 25.28806 | 476 ft | 111 kts | 277° |
| 2026-04-27 15:21 | -33.98493 | 25.28760 | 484 ft | 109 kts | 271° |
| 2026-04-27 15:22 | -33.98879 | 25.29010 | 612 ft | 106 kts | 156° |
| 2026-04-27 15:23 | -33.98882 | 25.29014 | 608 ft | 106 kts | 157° |
| 2026-04-27 15:23 | -33.98918 | 25.29049 | 578 ft | 107 kts | 150° |
| 2026-04-27 15:23 | -33.99167 | 25.29705 | 476 ft | 99 kts | 16° |
| 2026-04-27 15:23 | -33.98841 | 25.29421 | 376 ft | 62 kts | 272° |
| 2026-04-27 15:24 | -33.98728 | 25.29005 | 106 ft | 28 kts | 273° |
| 2026-04-27 15:24 | -33.98717 | 25.28961 | 61 ft | 15 kts | 270° |
| 2026-04-27 15:24 | -33.98716 | 25.28938 | 10 ft | 0 kts | 270° |
| 2026-04-27 15:25 | -33.98717 | 25.28937 | 20 ft | 1 kts | 265° |
| 2026-04-27 15:25 | -33.98717 | 25.28934 | 18 ft | 1 kts | 266° |
| 2026-04-27 15:27 | -33.98718 | 25.28936 | 54 ft | 15 kts | 174° |
| 2026-04-27 15:27 | -33.98866 | 25.29323 | 75 ft | 79 kts | 130° |
| 2026-04-27 15:28 | -33.99109 | 25.29815 | 175 ft | 119 kts | 115° |
| 2026-04-27 15:28 | -33.99394 | 25.30867 | 220 ft | 140 kts | 115° |
| 2026-04-27 15:28 | -33.99683 | 25.31352 | 181 ft | 148 kts | 125° |
| 2026-04-27 15:29 | -33.99800 | 25.31614 | 234 ft | 140 kts | 131° |
| 2026-04-27 15:30 | -34.00105 | 25.31957 | 476 ft | 115 kts | 148° |
| 2026-04-27 15:30 | -34.00583 | 25.32835 | 527 ft | 140 kts | 119° |
| 2026-04-27 15:30 | -34.01004 | 25.33874 | 715 ft | 122 kts | 135° |
| 2026-04-27 15:31 | -34.01434 | 25.34848 | 840 ft | 136 kts | 127° |
| 2026-04-27 15:31 | -34.01956 | 25.35829 | 610 ft | 158 kts | 109° |
| 2026-04-27 15:31 | -34.02175 | 25.37115 | 511 ft | 151 kts | 97° |
| 2026-04-27 15:31 | -34.01931 | 25.38094 | 731 ft | 98 kts | 350° |
| 2026-04-27 15:32 | -34.02010 | 25.37676 | 621 ft | 123 kts | 168° |
| 2026-04-27 15:32 | -34.02554 | 25.38680 | 383 ft | 155 kts | 111° |
| 2026-04-27 15:32 | -34.02863 | 25.39917 | 374 ft | 156 kts | 102° |
| 2026-04-27 15:32 | -34.02980 | 25.40754 | 480 ft | 149 kts | 89° |
| 2026-04-27 15:33 | -34.02986 | 25.41050 | 610 ft | 141 kts | 95° |
| 2026-04-27 15:34 | -34.03082 | 25.42201 | 751 ft | 144 kts | 96° |
| 2026-04-27 15:34 | -34.03115 | 25.43434 | 747 ft | 152 kts | 92° |
| 2026-04-27 15:34 | -34.03092 | 25.44756 | 563 ft | 158 kts | 82° |
| 2026-04-27 15:34 | -34.02944 | 25.46053 | 412 ft | 155 kts | 73° |
| 2026-04-27 15:35 | -34.02775 | 25.47274 | 614 ft | 140 kts | 83° |
| 2026-04-27 15:35 | -34.02825 | 25.48469 | 645 ft | 146 kts | 101° |
| 2026-04-27 15:35 | -34.03018 | 25.49676 | 694 ft | 146 kts | 107° |
| 2026-04-27 15:35 | -34.03338 | 25.50783 | 857 ft | 137 kts | 121° |
| 2026-04-27 15:36 | -34.03700 | 25.51881 | 830 ft | 147 kts | 111° |
| 2026-04-27 15:36 | -34.04022 | 25.53113 | 460 ft | 160 kts | 118° |
| 2026-04-27 15:36 | -34.04258 | 25.54360 | 439 ft | 153 kts | 94° |
| 2026-04-27 15:36 | -34.04323 | 25.55631 | 282 ft | 157 kts | 91° |
| 2026-04-27 15:37 | -34.04451 | 25.56918 | 269 ft | 152 kts | 107° |
| 2026-04-27 15:37 | -34.04917 | 25.58053 | 221 ft | 150 kts | 99° |
| 2026-04-27 15:37 | -34.04772 | 25.59268 | 294 ft | 144 kts | 77° |
| 2026-04-27 15:37 | -34.04595 | 25.60467 | 345 ft | 146 kts | 82° |
| 2026-04-27 15:38 | -34.04586 | 25.61689 | 323 ft | 152 kts | 92° |
| 2026-04-27 15:38 | -34.04630 | 25.62961 | 237 ft | 154 kts | 76° |
| 2026-04-27 15:38 | -34.04165 | 25.64048 | 304 ft | 141 kts | 45° |
| 2026-04-27 15:38 | -34.03486 | 25.64852 | 321 ft | 140 kts | 36° |
| 2026-04-27 15:39 | -34.03060 | 25.65944 | 263 ft | 150 kts | 81° |
| 2026-04-27 15:39 | -34.03110 | 25.67171 | 324 ft | 146 kts | 104° |
| 2026-04-27 15:39 | -34.03349 | 25.68358 | 388 ft | 145 kts | 105° |
| 2026-04-27 15:39 | -34.03393 | 25.69613 | 339 ft | 152 kts | 76° |
| 2026-04-27 15:40 | -34.02786 | 25.70189 | 344 ft | 107 kts | 324° |
| 2026-04-27 15:40 | -34.02073 | 25.69811 | 225 ft | 113 kts | 321° |
| 2026-04-27 15:40 | -34.01323 | 25.69470 | 162 ft | 118 kts | 327° |
| 2026-04-27 15:40 | -34.00559 | 25.69151 | 172 ft | 116 kts | 326° |
| 2026-04-27 15:41 | -33.99917 | 25.68658 | 158 ft | 108 kts | 307° |
| 2026-04-27 15:41 | -33.99259 | 25.68245 | 225 ft | 108 kts | 315° |
| 2026-04-27 15:41 | -33.98633 | 25.67715 | 136 ft | 110 kts | 307° |
| 2026-04-27 15:41 | -33.98229 | 25.67012 | 146 ft | 101 kts | 285° |
| 2026-04-27 15:42 | -33.97968 | 25.66237 | 103 ft | 100 kts | 284° |
| 2026-04-27 15:42 | -33.97632 | 25.65542 | 146 ft | 104 kts | 300° |
| 2026-04-27 15:42 | -33.97094 | 25.64964 | 241 ft | 105 kts | 316° |
| 2026-04-27 15:42 | -33.96447 | 25.64595 | 372 ft | 107 kts | 319° |
| 2026-04-27 15:43 | -33.95917 | 25.64011 | 279 ft | 100 kts | 281° |
| 2026-04-27 15:43 | -33.95810 | 25.63169 | 196 ft | 102 kts | 274° |
| 2026-04-27 15:43 | -33.95518 | 25.62428 | 277 ft | 103 kts | 301° |
| 2026-04-27 15:43 | -33.95075 | 25.61798 | 266 ft | 93 kts | 291° |
| 2026-04-27 15:44 | -33.95125 | 25.61181 | 395 ft | 84 kts | 221° |
| 2026-04-27 15:44 | -33.95674 | 25.60960 | 537 ft | 105 kts | 173° |
| 2026-04-27 15:44 | -33.96375 | 25.61239 | 569 ft | 104 kts | 181° |
| 2026-04-27 15:44 | -33.97077 | 25.61416 | 482 ft | 102 kts | 170° |
| 2026-04-27 15:45 | -33.97587 | 25.61694 | 525 ft | 87 kts | 137° |
| 2026-04-27 15:45 | -33.97824 | 25.62315 | 359 ft | 45 kts | 196° |
| 2026-04-27 15:45 | -33.97982 | 25.62253 | 286 ft | 26 kts | 245° |
| 2026-04-27 15:45 | -33.98032 | 25.62208 | 208 ft | 1 kts | 256° |
| 2026-04-27 15:46 | -33.98033 | 25.62209 | 199 ft | 0 kts | 257° |